ZWWW/URC METAR and TAF weather

Enter ICAO airport designator
Station Type Date Time Source
ZWWW METAR 2020/09/26 23:30 UTC NOAA

ZWWW 262330Z VRB01MPS CAVOK 09/00 Q1022 NOSIG


Station Type Date Time Source
ZWWW Decoded METAR 2020/09/26 23:30 UTC NOAA

Urum-Qi / Diwopu, China (ZWWW) 43-54N 087-28E
Sep 26, 2020 - 07:30 PM EDT / 2020.09.26 2330 UTC
Wind: Variable at 2 MPH (2 KT):0
Visibility: greater than 7 mile(s):0
Temperature: 48 F (9 C)
Dew Point: 32 F (0 C)
Relative Humidity: 53%
Pressure (altimeter): 30.18 in. Hg (1022 hPa)
ob: ZWWW 262330Z VRB01MPS CAVOK 09/00 Q1022 NOSIG
cycle: 23

Station Type Date Time Source
ZWWW TAF 2020/09/26 18:03 UTC NOAA

TAF ZWWW 261505Z 2618/2718 22004MPS CAVOK TX16/2709Z TN06/2623Z
BECMG 2702/2703 03004MPS
BECMG 2711/2712 28004MPS
TEMPO 2714/2718 9999 -SHRA BKN040

Example: see airport list